sensor_id;sensor_type;location;lat;lon;timestamp;P1;durP1;ratioP1;P2;durP2;ratioP2
5587;SDS011;2816;49.778;9.986;2022-11-03T00:00:04;10.53;;;4.30;;
5587;SDS011;2816;49.778;9.986;2022-11-03T00:02:31;10.83;;;4.20;;
5587;SDS011;2816;49.778;9.986;2022-11-03T00:04:58;9.33;;;3.67;;
5587;SDS011;2816;49.778;9.986;2022-11-03T00:07:46;9.00;;;4.07;;
5587;SDS011;2816;49.778;9.986;2022-11-03T00:10:13;16.73;;;4.33;;
5587;SDS011;2816;49.778;9.986;2022-11-03T00:12:40;12.77;;;4.93;;
5587;SDS011;2816;49.778;9.986;2022-11-03T00:15:08;13.70;;;5.00;;
5587;SDS011;2816;49.778;9.986;2022-11-03T00:17:35;11.07;;;4.93;;
5587;SDS011;2816;49.778;9.986;2022-11-03T00:20:03;9.40;;;4.07;;
5587;SDS011;2816;49.778;9.986;2022-11-03T00:22:30;11.40;;;4.57;;
5587;SDS011;2816;49.778;9.986;2022-11-03T00:24:58;9.07;;;4.23;;
5587;SDS011;2816;49.778;9.986;2022-11-03T00:27:25;9.60;;;3.90;;
5587;SDS011;2816;49.778;9.986;2022-11-03T00:29:52;15.37;;;4.80;;
5587;SDS011;2816;49.778;9.986;2022-11-03T00:32:20;9.00;;;4.53;;
5587;SDS011;2816;49.778;9.986;2022-11-03T00:34:47;9.63;;;4.13;;
5587;SDS011;2816;49.778;9.986;2022-11-03T00:37:14;18.63;;;4.30;;
5587;SDS011;2816;49.778;9.986;2022-11-03T00:39:41;14.30;;;4.90;;
5587;SDS011;2816;49.778;9.986;2022-11-03T00:42:08;10.50;;;4.47;;
5587;SDS011;2816;49.778;9.986;2022-11-03T00:44:35;7.67;;;4.50;;
5587;SDS011;2816;49.778;9.986;2022-11-03T00:47:02;5.17;;;4.00;;
5587;SDS011;2816;49.778;9.986;2022-11-03T00:49:30;14.30;;;4.47;;
5587;SDS011;2816;49.778;9.986;2022-11-03T00:51:57;10.87;;;4.70;;
5587;SDS011;2816;49.778;9.986;2022-11-03T00:54:24;8.57;;;4.50;;
5587;SDS011;2816;49.778;9.986;2022-11-03T00:56:51;9.27;;;4.00;;
5587;SDS011;2816;49.778;9.986;2022-11-03T00:59:17;7.27;;;3.60;;
5587;SDS011;2816;49.778;9.986;2022-11-03T01:01:44;12.23;;;4.50;;
5587;SDS011;2816;49.778;9.986;2022-11-03T01:04:11;9.07;;;4.13;;
5587;SDS011;2816;49.778;9.986;2022-11-03T01:06:58;14.17;;;3.70;;
5587;SDS011;2816;49.778;9.986;2022-11-03T01:09:26;7.53;;;4.33;;
5587;SDS011;2816;49.778;9.986;2022-11-03T01:11:56;4.10;;;3.20;;
5587;SDS011;2816;49.778;9.986;2022-11-03T01:14:24;6.37;;;3.30;;
5587;SDS011;2816;49.778;9.986;2022-11-03T01:16:52;8.97;;;4.03;;
5587;SDS011;2816;49.778;9.986;2022-11-03T01:19:19;9.60;;;3.80;;
5587;SDS011;2816;49.778;9.986;2022-11-03T01:21:46;10.03;;;3.90;;
5587;SDS011;2816;49.778;9.986;2022-11-03T01:24:14;8.13;;;3.77;;
5587;SDS011;2816;49.778;9.986;2022-11-03T01:26:41;10.77;;;4.17;;
5587;SDS011;2816;49.778;9.986;2022-11-03T01:29:08;8.63;;;4.00;;
5587;SDS011;2816;49.778;9.986;2022-11-03T01:31:35;10.20;;;4.27;;
5587;SDS011;2816;49.778;9.986;2022-11-03T01:34:02;9.87;;;3.93;;
5587;SDS011;2816;49.778;9.986;2022-11-03T01:36:29;7.80;;;3.40;;
5587;SDS011;2816;49.778;9.986;2022-11-03T01:38:56;8.77;;;4.13;;
5587;SDS011;2816;49.778;9.986;2022-11-03T01:41:25;11.80;;;4.60;;
5587;SDS011;2816;49.778;9.986;2022-11-03T01:46:56;6.83;;;4.20;;
5587;SDS011;2816;49.778;9.986;2022-11-03T01:49:29;7.90;;;3.80;;
5587;SDS011;2816;49.778;9.986;2022-11-03T01:52:02;6.40;;;3.57;;
5587;SDS011;2816;49.778;9.986;2022-11-03T01:54:34;10.40;;;4.17;;
5587;SDS011;2816;49.778;9.986;2022-11-03T01:57:05;5.47;;;3.60;;
5587;SDS011;2816;49.778;9.986;2022-11-03T01:59:35;6.30;;;3.43;;
5587;SDS011;2816;49.778;9.986;2022-11-03T02:02:03;11.63;;;4.00;;
5587;SDS011;2816;49.778;9.986;2022-11-03T02:04:31;8.60;;;3.50;;
5587;SDS011;2816;49.778;9.986;2022-11-03T02:07:01;14.03;;;4.10;;
5587;SDS011;2816;49.778;9.986;2022-11-03T02:09:36;12.13;;;3.33;;
5587;SDS011;2816;49.778;9.986;2022-11-03T02:12:05;9.07;;;4.13;;
5587;SDS011;2816;49.778;9.986;2022-11-03T02:14:34;7.80;;;3.73;;
5587;SDS011;2816;49.778;9.986;2022-11-03T02:17:05;7.70;;;3.43;;
5587;SDS011;2816;49.778;9.986;2022-11-03T02:19:35;11.43;;;4.03;;
5587;SDS011;2816;49.778;9.986;2022-11-03T02:22:11;8.60;;;3.43;;
5587;SDS011;2816;49.778;9.986;2022-11-03T02:24:50;13.37;;;3.57;;
5587;SDS011;2816;49.778;9.986;2022-11-03T02:27:21;5.80;;;3.60;;
5587;SDS011;2816;49.778;9.986;2022-11-03T02:29:48;7.63;;;3.87;;
5587;SDS011;2816;49.778;9.986;2022-11-03T02:32:17;10.40;;;3.37;;
5587;SDS011;2816;49.778;9.986;2022-11-03T02:34:48;11.57;;;4.37;;
5587;SDS011;2816;49.778;9.986;2022-11-03T02:37:20;10.50;;;3.67;;
5587;SDS011;2816;49.778;9.986;2022-11-03T02:39:50;9.63;;;3.53;;
5587;SDS011;2816;49.778;9.986;2022-11-03T02:42:23;9.93;;;3.47;;
5587;SDS011;2816;49.778;9.986;2022-11-03T02:44:51;7.50;;;3.23;;
5587;SDS011;2816;49.778;9.986;2022-11-03T02:47:20;6.40;;;3.30;;
5587;SDS011;2816;49.778;9.986;2022-11-03T02:49:50;9.30;;;3.87;;
5587;SDS011;2816;49.778;9.986;2022-11-03T02:52:36;16.00;;;3.50;;
5587;SDS011;2816;49.778;9.986;2022-11-03T02:55:08;12.90;;;3.90;;
5587;SDS011;2816;49.778;9.986;2022-11-03T02:57:41;10.93;;;3.40;;
5587;SDS011;2816;49.778;9.986;2022-11-03T03:00:14;7.77;;;3.93;;
5587;SDS011;2816;49.778;9.986;2022-11-03T03:02:46;14.13;;;3.70;;
5587;SDS011;2816;49.778;9.986;2022-11-03T03:05:20;10.50;;;3.90;;
5587;SDS011;2816;49.778;9.986;2022-11-03T03:07:53;9.00;;;3.87;;
5587;SDS011;2816;49.778;9.986;2022-11-03T03:10:25;9.43;;;3.70;;
5587;SDS011;2816;49.778;9.986;2022-11-03T03:12:59;9.20;;;4.10;;
5587;SDS011;2816;49.778;9.986;2022-11-03T03:15:29;12.10;;;4.53;;
5587;SDS011;2816;49.778;9.986;2022-11-03T03:18:06;7.30;;;3.80;;
5587;SDS011;2816;49.778;9.986;2022-11-03T03:20:42;8.17;;;3.90;;
5587;SDS011;2816;49.778;9.986;2022-11-03T03:23:18;7.90;;;3.87;;
5587;SDS011;2816;49.778;9.986;2022-11-03T03:25:47;9.90;;;4.00;;
5587;SDS011;2816;49.778;9.986;2022-11-03T03:28:19;4.53;;;3.23;;
5587;SDS011;2816;49.778;9.986;2022-11-03T03:30:50;9.53;;;3.90;;
5587;SDS011;2816;49.778;9.986;2022-11-03T03:33:19;11.23;;;3.37;;
5587;SDS011;2816;49.778;9.986;2022-11-03T03:35:48;7.67;;;3.23;;
5587;SDS011;2816;49.778;9.986;2022-11-03T03:38:17;8.80;;;3.60;;
5587;SDS011;2816;49.778;9.986;2022-11-03T03:40:47;6.30;;;3.50;;
5587;SDS011;2816;49.778;9.986;2022-11-03T03:43:19;9.80;;;4.20;;
5587;SDS011;2816;49.778;9.986;2022-11-03T03:45:49;11.60;;;3.60;;
5587;SDS011;2816;49.778;9.986;2022-11-03T03:48:18;9.73;;;3.80;;
5587;SDS011;2816;49.778;9.986;2022-11-03T03:50:45;8.37;;;3.50;;
5587;SDS011;2816;49.778;9.986;2022-11-03T03:53:15;8.13;;;3.73;;
5587;SDS011;2816;49.778;9.986;2022-11-03T03:55:44;6.67;;;3.70;;
5587;SDS011;2816;49.778;9.986;2022-11-03T03:58:14;10.27;;;3.70;;
5587;SDS011;2816;49.778;9.986;2022-11-03T04:00:43;7.73;;;3.57;;
5587;SDS011;2816;49.778;9.986;2022-11-03T04:03:12;7.53;;;3.67;;
5587;SDS011;2816;49.778;9.986;2022-11-03T04:05:42;8.50;;;3.27;;
5587;SDS011;2816;49.778;9.986;2022-11-03T04:08:09;9.80;;;3.53;;
5587;SDS011;2816;49.778;9.986;2022-11-03T04:10:36;10.90;;;3.90;;
5587;SDS011;2816;49.778;9.986;2022-11-03T04:13:04;10.10;;;3.73;;
5587;SDS011;2816;49.778;9.986;2022-11-03T04:15:49;8.13;;;3.80;;
5587;SDS011;2816;49.778;9.986;2022-11-03T04:18:34;8.37;;;3.60;;
5587;SDS011;2816;49.778;9.986;2022-11-03T04:21:18;8.80;;;4.10;;
5587;SDS011;2816;49.778;9.986;2022-11-03T04:24:02;11.03;;;4.00;;
5587;SDS011;2816;49.778;9.986;2022-11-03T04:26:30;6.47;;;3.60;;
5587;SDS011;2816;49.778;9.986;2022-11-03T04:28:57;14.27;;;4.17;;
5587;SDS011;2816;49.778;9.986;2022-11-03T04:31:26;11.40;;;4.10;;
5587;SDS011;2816;49.778;9.986;2022-11-03T04:33:54;8.07;;;4.30;;
5587;SDS011;2816;49.778;9.986;2022-11-03T04:36:22;10.10;;;3.87;;
5587;SDS011;2816;49.778;9.986;2022-11-03T04:38:50;10.87;;;3.60;;
5587;SDS011;2816;49.778;9.986;2022-11-03T04:41:19;13.43;;;4.57;;
5587;SDS011;2816;49.778;9.986;2022-11-03T04:43:48;8.33;;;4.07;;
5587;SDS011;2816;49.778;9.986;2022-11-03T04:46:16;19.30;;;4.40;;
5587;SDS011;2816;49.778;9.986;2022-11-03T04:48:50;11.93;;;4.00;;
5587;SDS011;2816;49.778;9.986;2022-11-03T04:51:19;7.70;;;4.40;;
5587;SDS011;2816;49.778;9.986;2022-11-03T04:53:50;6.97;;;4.00;;
5587;SDS011;2816;49.778;9.986;2022-11-03T04:56:20;8.97;;;4.50;;
5587;SDS011;2816;49.778;9.986;2022-11-03T04:58:49;16.83;;;4.50;;
5587;SDS011;2816;49.778;9.986;2022-11-03T05:01:18;9.90;;;4.47;;
5587;SDS011;2816;49.778;9.986;2022-11-03T05:03:46;8.67;;;5.20;;
5587;SDS011;2816;49.778;9.986;2022-11-03T05:06:17;8.33;;;4.03;;
5587;SDS011;2816;49.778;9.986;2022-11-03T05:08:45;5.50;;;3.90;;
5587;SDS011;2816;49.778;9.986;2022-11-03T05:11:18;12.17;;;4.20;;
5587;SDS011;2816;49.778;9.986;2022-11-03T05:13:50;8.27;;;4.10;;
5587;SDS011;2816;49.778;9.986;2022-11-03T05:16:18;11.23;;;3.83;;
5587;SDS011;2816;49.778;9.986;2022-11-03T05:18:45;6.63;;;4.03;;
5587;SDS011;2816;49.778;9.986;2022-11-03T05:21:16;9.50;;;4.60;;
5587;SDS011;2816;49.778;9.986;2022-11-03T05:23:47;9.90;;;4.63;;
5587;SDS011;2816;49.778;9.986;2022-11-03T05:26:18;11.10;;;4.60;;
5587;SDS011;2816;49.778;9.986;2022-11-03T05:28:48;10.13;;;4.97;;
5587;SDS011;2816;49.778;9.986;2022-11-03T05:31:22;6.67;;;4.60;;
5587;SDS011;2816;49.778;9.986;2022-11-03T05:33:51;15.87;;;4.70;;
5587;SDS011;2816;49.778;9.986;2022-11-03T05:36:23;10.30;;;5.00;;
5587;SDS011;2816;49.778;9.986;2022-11-03T05:38:52;16.17;;;4.53;;
5587;SDS011;2816;49.778;9.986;2022-11-03T05:41:23;8.00;;;4.30;;
5587;SDS011;2816;49.778;9.986;2022-11-03T05:43:54;10.27;;;5.27;;
5587;SDS011;2816;49.778;9.986;2022-11-03T05:46:24;8.17;;;4.77;;
5587;SDS011;2816;49.778;9.986;2022-11-03T05:48:54;9.83;;;4.80;;
5587;SDS011;2816;49.778;9.986;2022-11-03T05:51:23;15.30;;;4.63;;
5587;SDS011;2816;49.778;9.986;2022-11-03T05:53:54;11.23;;;4.93;;
5587;SDS011;2816;49.778;9.986;2022-11-03T05:56:23;13.50;;;5.03;;
5587;SDS011;2816;49.778;9.986;2022-11-03T05:58:51;9.40;;;4.93;;
5587;SDS011;2816;49.778;9.986;2022-11-03T06:01:23;18.90;;;6.03;;
5587;SDS011;2816;49.778;9.986;2022-11-03T06:03:54;8.30;;;4.70;;
5587;SDS011;2816;49.778;9.986;2022-11-03T06:06:23;10.63;;;4.87;;
5587;SDS011;2816;49.778;9.986;2022-11-03T06:08:54;7.90;;;4.57;;
5587;SDS011;2816;49.778;9.986;2022-11-03T06:11:24;8.20;;;4.50;;
5587;SDS011;2816;49.778;9.986;2022-11-03T06:13:54;10.97;;;4.93;;
5587;SDS011;2816;49.778;9.986;2022-11-03T06:16:31;9.07;;;4.70;;
5587;SDS011;2816;49.778;9.986;2022-11-03T06:19:06;7.33;;;4.40;;
5587;SDS011;2816;49.778;9.986;2022-11-03T06:21:48;7.67;;;4.33;;
5587;SDS011;2816;49.778;9.986;2022-11-03T06:24:16;8.37;;;4.13;;
5587;SDS011;2816;49.778;9.986;2022-11-03T06:26:45;7.93;;;4.47;;
5587;SDS011;2816;49.778;9.986;2022-11-03T06:29:13;11.03;;;5.57;;
5587;SDS011;2816;49.778;9.986;2022-11-03T06:31:43;14.63;;;5.33;;
5587;SDS011;2816;49.778;9.986;2022-11-03T06:34:17;11.40;;;5.30;;
5587;SDS011;2816;49.778;9.986;2022-11-03T06:36:58;12.77;;;5.67;;
5587;SDS011;2816;49.778;9.986;2022-11-03T06:39:34;12.60;;;5.50;;
5587;SDS011;2816;49.778;9.986;2022-11-03T06:42:08;14.67;;;5.57;;
5587;SDS011;2816;49.778;9.986;2022-11-03T06:44:39;9.60;;;4.70;;
5587;SDS011;2816;49.778;9.986;2022-11-03T06:47:12;18.67;;;4.97;;
5587;SDS011;2816;49.778;9.986;2022-11-03T06:49:44;15.47;;;5.80;;
5587;SDS011;2816;49.778;9.986;2022-11-03T06:52:18;14.07;;;4.90;;
5587;SDS011;2816;49.778;9.986;2022-11-03T06:54:56;11.03;;;5.10;;
5587;SDS011;2816;49.778;9.986;2022-11-03T06:57:27;11.10;;;4.90;;
5587;SDS011;2816;49.778;9.986;2022-11-03T06:59:57;21.60;;;5.80;;
5587;SDS011;2816;49.778;9.986;2022-11-03T07:02:31;16.20;;;6.00;;
5587;SDS011;2816;49.778;9.986;2022-11-03T07:05:19;12.73;;;6.33;;
5587;SDS011;2816;49.778;9.986;2022-11-03T07:07:50;22.30;;;6.30;;
5587;SDS011;2816;49.778;9.986;2022-11-03T07:10:19;8.50;;;5.30;;
5587;SDS011;2816;49.778;9.986;2022-11-03T07:12:49;12.50;;;5.80;;
5587;SDS011;2816;49.778;9.986;2022-11-03T07:15:19;24.10;;;7.13;;
5587;SDS011;2816;49.778;9.986;2022-11-03T07:17:49;25.03;;;6.27;;
5587;SDS011;2816;49.778;9.986;2022-11-03T07:20:17;11.83;;;5.80;;
5587;SDS011;2816;49.778;9.986;2022-11-03T07:22:44;16.17;;;5.70;;
5587;SDS011;2816;49.778;9.986;2022-11-03T07:25:15;22.10;;;6.50;;
5587;SDS011;2816;49.778;9.986;2022-11-03T07:27:44;19.17;;;6.27;;
5587;SDS011;2816;49.778;9.986;2022-11-03T07:30:15;19.13;;;7.10;;
5587;SDS011;2816;49.778;9.986;2022-11-03T07:32:44;15.10;;;6.40;;
5587;SDS011;2816;49.778;9.986;2022-11-03T07:35:23;22.73;;;7.87;;
5587;SDS011;2816;49.778;9.986;2022-11-03T07:37:55;17.43;;;8.30;;
5587;SDS011;2816;49.778;9.986;2022-11-03T07:40:31;27.37;;;11.43;;
5587;SDS011;2816;49.778;9.986;2022-11-03T07:43:00;17.00;;;8.10;;
5587;SDS011;2816;49.778;9.986;2022-11-03T07:45:39;15.27;;;7.13;;
5587;SDS011;2816;49.778;9.986;2022-11-03T07:48:10;17.30;;;7.93;;
5587;SDS011;2816;49.778;9.986;2022-11-03T07:50:44;20.20;;;7.30;;
5587;SDS011;2816;49.778;9.986;2022-11-03T07:53:12;18.60;;;7.00;;
5587;SDS011;2816;49.778;9.986;2022-11-03T07:55:45;13.33;;;6.70;;
5587;SDS011;2816;49.778;9.986;2022-11-03T07:58:14;22.53;;;6.57;;
5587;SDS011;2816;49.778;9.986;2022-11-03T08:00:49;18.00;;;6.77;;
5587;SDS011;2816;49.778;9.986;2022-11-03T08:03:24;24.30;;;6.63;;
5587;SDS011;2816;49.778;9.986;2022-11-03T08:06:00;17.03;;;7.17;;
5587;SDS011;2816;49.778;9.986;2022-11-03T08:08:27;23.13;;;6.90;;
5587;SDS011;2816;49.778;9.986;2022-11-03T08:10:56;17.10;;;6.53;;
5587;SDS011;2816;49.778;9.986;2022-11-03T08:13:22;13.93;;;6.80;;
5587;SDS011;2816;49.778;9.986;2022-11-03T08:15:49;18.40;;;7.63;;
5587;SDS011;2816;49.778;9.986;2022-11-03T08:18:16;19.70;;;7.83;;
5587;SDS011;2816;49.778;9.986;2022-11-03T08:20:43;21.03;;;8.07;;
5587;SDS011;2816;49.778;9.986;2022-11-03T08:23:10;19.53;;;7.80;;
5587;SDS011;2816;49.778;9.986;2022-11-03T08:25:37;19.77;;;7.80;;
5587;SDS011;2816;49.778;9.986;2022-11-03T08:28:05;24.57;;;8.97;;
5587;SDS011;2816;49.778;9.986;2022-11-03T08:30:32;23.60;;;10.47;;
5587;SDS011;2816;49.778;9.986;2022-11-03T08:32:59;27.73;;;8.60;;
5587;SDS011;2816;49.778;9.986;2022-11-03T08:35:26;22.10;;;9.43;;
5587;SDS011;2816;49.778;9.986;2022-11-03T08:37:53;16.03;;;9.73;;
5587;SDS011;2816;49.778;9.986;2022-11-03T08:40:20;19.10;;;8.23;;
5587;SDS011;2816;49.778;9.986;2022-11-03T08:42:47;14.50;;;7.70;;
5587;SDS011;2816;49.778;9.986;2022-11-03T08:45:16;28.67;;;7.70;;
5587;SDS011;2816;49.778;9.986;2022-11-03T08:47:43;14.73;;;7.30;;
5587;SDS011;2816;49.778;9.986;2022-11-03T08:50:10;22.90;;;8.10;;
5587;SDS011;2816;49.778;9.986;2022-11-03T08:52:37;16.43;;;7.40;;
5587;SDS011;2816;49.778;9.986;2022-11-03T08:55:04;16.70;;;7.97;;
5587;SDS011;2816;49.778;9.986;2022-11-03T08:57:31;13.23;;;7.73;;
5587;SDS011;2816;49.778;9.986;2022-11-03T08:59:58;16.43;;;7.27;;
5587;SDS011;2816;49.778;9.986;2022-11-03T09:02:26;31.60;;;9.60;;
5587;SDS011;2816;49.778;9.986;2022-11-03T09:04:53;17.60;;;7.40;;
5587;SDS011;2816;49.778;9.986;2022-11-03T09:07:20;23.57;;;9.10;;
5587;SDS011;2816;49.778;9.986;2022-11-03T09:09:47;19.67;;;9.20;;
5587;SDS011;2816;49.778;9.986;2022-11-03T09:12:14;13.77;;;8.17;;
5587;SDS011;2816;49.778;9.986;2022-11-03T09:14:41;13.40;;;8.00;;
5587;SDS011;2816;49.778;9.986;2022-11-03T09:17:08;27.97;;;9.67;;
5587;SDS011;2816;49.778;9.986;2022-11-03T09:19:36;28.97;;;8.83;;
5587;SDS011;2816;49.778;9.986;2022-11-03T09:22:03;14.77;;;9.47;;
5587;SDS011;2816;49.778;9.986;2022-11-03T09:24:30;18.20;;;8.93;;
5587;SDS011;2816;49.778;9.986;2022-11-03T09:26:57;28.07;;;9.80;;
5587;SDS011;2816;49.778;9.986;2022-11-03T09:29:24;20.63;;;8.60;;
5587;SDS011;2816;49.778;9.986;2022-11-03T09:31:51;20.20;;;9.30;;
5587;SDS011;2816;49.778;9.986;2022-11-03T09:34:18;13.70;;;9.37;;
5587;SDS011;2816;49.778;9.986;2022-11-03T09:36:46;15.47;;;8.10;;
5587;SDS011;2816;49.778;9.986;2022-11-03T09:39:13;23.43;;;9.07;;
5587;SDS011;2816;49.778;9.986;2022-11-03T09:41:40;22.23;;;8.73;;
5587;SDS011;2816;49.778;9.986;2022-11-03T09:44:07;20.17;;;8.47;;
5587;SDS011;2816;49.778;9.986;2022-11-03T09:46:34;12.87;;;7.90;;
5587;SDS011;2816;49.778;9.986;2022-11-03T09:49:01;14.20;;;7.80;;
5587;SDS011;2816;49.778;9.986;2022-11-03T09:51:30;15.63;;;7.27;;
5587;SDS011;2816;49.778;9.986;2022-11-03T09:54:02;10.90;;;6.40;;
5587;SDS011;2816;49.778;9.986;2022-11-03T09:56:30;11.20;;;6.60;;
5587;SDS011;2816;49.778;9.986;2022-11-03T09:59:01;10.87;;;6.27;;
5587;SDS011;2816;49.778;9.986;2022-11-03T10:01:39;12.70;;;7.43;;
5587;SDS011;2816;49.778;9.986;2022-11-03T10:04:07;23.13;;;7.27;;
5587;SDS011;2816;49.778;9.986;2022-11-03T10:06:35;14.33;;;6.97;;
5587;SDS011;2816;49.778;9.986;2022-11-03T10:09:04;12.20;;;7.27;;
5587;SDS011;2816;49.778;9.986;2022-11-03T10:11:32;11.00;;;6.30;;
5587;SDS011;2816;49.778;9.986;2022-11-03T10:13:59;10.77;;;6.03;;
5587;SDS011;2816;49.778;9.986;2022-11-03T10:16:26;10.90;;;6.97;;
5587;SDS011;2816;49.778;9.986;2022-11-03T10:18:53;12.80;;;7.00;;
5587;SDS011;2816;49.778;9.986;2022-11-03T10:21:22;11.23;;;6.77;;
5587;SDS011;2816;49.778;9.986;2022-11-03T10:23:52;11.80;;;6.77;;
5587;SDS011;2816;49.778;9.986;2022-11-03T10:26:21;10.33;;;7.23;;
5587;SDS011;2816;49.778;9.986;2022-11-03T10:28:58;18.40;;;6.77;;
5587;SDS011;2816;49.778;9.986;2022-11-03T10:31:30;21.10;;;9.00;;
5587;SDS011;2816;49.778;9.986;2022-11-03T10:33:59;13.63;;;7.70;;
5587;SDS011;2816;49.778;9.986;2022-11-03T10:36:26;22.43;;;8.60;;
5587;SDS011;2816;49.778;9.986;2022-11-03T10:38:55;13.90;;;7.57;;
5587;SDS011;2816;49.778;9.986;2022-11-03T10:41:24;14.27;;;7.37;;
5587;SDS011;2816;49.778;9.986;2022-11-03T10:43:58;24.53;;;7.20;;
5587;SDS011;2816;49.778;9.986;2022-11-03T10:46:26;16.93;;;8.67;;
5587;SDS011;2816;49.778;9.986;2022-11-03T10:49:00;17.20;;;8.13;;
5587;SDS011;2816;49.778;9.986;2022-11-03T10:51:30;27.27;;;8.97;;
5587;SDS011;2816;49.778;9.986;2022-11-03T10:53:58;12.00;;;7.60;;
5587;SDS011;2816;49.778;9.986;2022-11-03T10:56:26;16.47;;;8.23;;
5587;SDS011;2816;49.778;9.986;2022-11-03T10:58:53;15.40;;;6.73;;
5587;SDS011;2816;49.778;9.986;2022-11-03T11:01:21;16.57;;;9.10;;
5587;SDS011;2816;49.778;9.986;2022-11-03T11:03:48;16.30;;;7.97;;
5587;SDS011;2816;49.778;9.986;2022-11-03T11:06:17;16.73;;;7.97;;
5587;SDS011;2816;49.778;9.986;2022-11-03T11:08:45;13.30;;;7.87;;
5587;SDS011;2816;49.778;9.986;2022-11-03T11:11:14;15.43;;;7.43;;
5587;SDS011;2816;49.778;9.986;2022-11-03T11:13:43;12.40;;;7.70;;
5587;SDS011;2816;49.778;9.986;2022-11-03T11:19:11;20.50;;;8.20;;
5587;SDS011;2816;49.778;9.986;2022-11-03T11:24:58;19.63;;;8.93;;
5587;SDS011;2816;49.778;9.986;2022-11-03T11:33:26;14.47;;;8.83;;
5587;SDS011;2816;49.778;9.986;2022-11-03T11:36:18;18.43;;;7.50;;
5587;SDS011;2816;49.778;9.986;2022-11-03T11:38:53;9.27;;;6.33;;
5587;SDS011;2816;49.778;9.986;2022-11-03T11:47:34;18.63;;;7.00;;
5587;SDS011;2816;49.778;9.986;2022-11-03T11:50:28;12.80;;;6.73;;
5587;SDS011;2816;49.778;9.986;2022-11-03T11:53:03;12.70;;;6.93;;
5587;SDS011;2816;49.778;9.986;2022-11-03T11:55:40;14.90;;;6.57;;
5587;SDS011;2816;49.778;9.986;2022-11-03T11:58:20;18.00;;;7.37;;
5587;SDS011;2816;49.778;9.986;2022-11-03T12:00:51;10.43;;;6.20;;
5587;SDS011;2816;49.778;9.986;2022-11-03T12:03:25;12.27;;;6.43;;
5587;SDS011;2816;49.778;9.986;2022-11-03T12:05:58;12.07;;;7.10;;
5587;SDS011;2816;49.778;9.986;2022-11-03T12:08:26;13.53;;;5.73;;
5587;SDS011;2816;49.778;9.986;2022-11-03T12:10:55;11.87;;;6.60;;
5587;SDS011;2816;49.778;9.986;2022-11-03T12:13:34;16.73;;;6.93;;
5587;SDS011;2816;49.778;9.986;2022-11-03T12:16:09;10.37;;;6.20;;
5587;SDS011;2816;49.778;9.986;2022-11-03T12:18:51;9.33;;;6.50;;
5587;SDS011;2816;49.778;9.986;2022-11-03T12:24:24;17.10;;;7.17;;
5587;SDS011;2816;49.778;9.986;2022-11-03T12:26:52;18.40;;;6.97;;
5587;SDS011;2816;49.778;9.986;2022-11-03T12:29:19;10.40;;;5.83;;
5587;SDS011;2816;49.778;9.986;2022-11-03T12:31:46;15.20;;;6.80;;
5587;SDS011;2816;49.778;9.986;2022-11-03T12:34:13;14.07;;;6.40;;
5587;SDS011;2816;49.778;9.986;2022-11-03T12:36:41;8.80;;;6.40;;
5587;SDS011;2816;49.778;9.986;2022-11-03T12:39:09;14.47;;;6.67;;
5587;SDS011;2816;49.778;9.986;2022-11-03T12:41:37;8.53;;;6.40;;
5587;SDS011;2816;49.778;9.986;2022-11-03T12:44:04;10.73;;;6.57;;
5587;SDS011;2816;49.778;9.986;2022-11-03T12:46:31;12.60;;;5.90;;
5587;SDS011;2816;49.778;9.986;2022-11-03T12:48:58;7.53;;;5.87;;
5587;SDS011;2816;49.778;9.986;2022-11-03T12:51:25;8.03;;;5.90;;
5587;SDS011;2816;49.778;9.986;2022-11-03T12:53:51;13.93;;;6.17;;
5587;SDS011;2816;49.778;9.986;2022-11-03T12:56:20;8.03;;;6.97;;
5587;SDS011;2816;49.778;9.986;2022-11-03T12:58:47;12.50;;;5.87;;
5587;SDS011;2816;49.778;9.986;2022-11-03T13:01:13;12.60;;;6.70;;
5587;SDS011;2816;49.778;9.986;2022-11-03T13:03:40;10.67;;;5.80;;
5587;SDS011;2816;49.778;9.986;2022-11-03T13:06:07;9.40;;;6.03;;
5587;SDS011;2816;49.778;9.986;2022-11-03T13:08:35;17.20;;;7.20;;
5587;SDS011;2816;49.778;9.986;2022-11-03T13:11:03;15.90;;;7.10;;
5587;SDS011;2816;49.778;9.986;2022-11-03T13:13:51;9.33;;;6.10;;
5587;SDS011;2816;49.778;9.986;2022-11-03T13:16:18;11.73;;;6.40;;
5587;SDS011;2816;49.778;9.986;2022-11-03T13:18:46;8.13;;;5.97;;
5587;SDS011;2816;49.778;9.986;2022-11-03T13:21:13;15.17;;;6.07;;
5587;SDS011;2816;49.778;9.986;2022-11-03T13:23:40;17.80;;;6.27;;
5587;SDS011;2816;49.778;9.986;2022-11-03T13:26:07;14.60;;;6.43;;
5587;SDS011;2816;49.778;9.986;2022-11-03T13:28:34;19.97;;;6.50;;
5587;SDS011;2816;49.778;9.986;2022-11-03T13:31:03;8.83;;;5.80;;
5587;SDS011;2816;49.778;9.986;2022-11-03T13:33:30;9.93;;;5.70;;
5587;SDS011;2816;49.778;9.986;2022-11-03T13:35:59;8.60;;;6.13;;
5587;SDS011;2816;49.778;9.986;2022-11-03T13:38:26;13.03;;;6.67;;
5587;SDS011;2816;49.778;9.986;2022-11-03T13:40:53;15.93;;;6.70;;
5587;SDS011;2816;49.778;9.986;2022-11-03T13:43:21;14.13;;;6.43;;
5587;SDS011;2816;49.778;9.986;2022-11-03T13:45:49;9.43;;;5.80;;
5587;SDS011;2816;49.778;9.986;2022-11-03T13:48:18;22.50;;;6.60;;
5587;SDS011;2816;49.778;9.986;2022-11-03T13:50:45;13.40;;;6.20;;
5587;SDS011;2816;49.778;9.986;2022-11-03T13:53:14;9.33;;;5.30;;
5587;SDS011;2816;49.778;9.986;2022-11-03T13:55:42;12.03;;;5.40;;
5587;SDS011;2816;49.778;9.986;2022-11-03T13:58:09;12.83;;;5.80;;
5587;SDS011;2816;49.778;9.986;2022-11-03T14:00:36;8.20;;;5.20;;
5587;SDS011;2816;49.778;9.986;2022-11-03T14:03:03;8.17;;;5.80;;
5587;SDS011;2816;49.778;9.986;2022-11-03T14:05:31;11.30;;;5.70;;
5587;SDS011;2816;49.778;9.986;2022-11-03T14:07:58;7.97;;;5.20;;
5587;SDS011;2816;49.778;9.986;2022-11-03T14:10:25;8.80;;;5.47;;
5587;SDS011;2816;49.778;9.986;2022-11-03T14:12:52;9.60;;;5.47;;
5587;SDS011;2816;49.778;9.986;2022-11-03T14:15:18;9.37;;;5.30;;
5587;SDS011;2816;49.778;9.986;2022-11-03T14:17:45;8.03;;;5.23;;
5587;SDS011;2816;49.778;9.986;2022-11-03T14:20:12;7.87;;;5.50;;
5587;SDS011;2816;49.778;9.986;2022-11-03T14:22:40;8.03;;;5.03;;
5587;SDS011;2816;49.778;9.986;2022-11-03T14:25:07;16.23;;;5.70;;
5587;SDS011;2816;49.778;9.986;2022-11-03T14:27:35;14.87;;;5.07;;
5587;SDS011;2816;49.778;9.986;2022-11-03T14:30:02;15.77;;;7.27;;
5587;SDS011;2816;49.778;9.986;2022-11-03T14:32:29;12.13;;;5.53;;
5587;SDS011;2816;49.778;9.986;2022-11-03T14:34:56;18.20;;;5.40;;
5587;SDS011;2816;49.778;9.986;2022-11-03T14:37:22;10.97;;;5.00;;
5587;SDS011;2816;49.778;9.986;2022-11-03T14:39:51;8.13;;;4.80;;
5587;SDS011;2816;49.778;9.986;2022-11-03T14:42:18;13.97;;;5.87;;
5587;SDS011;2816;49.778;9.986;2022-11-03T14:44:44;10.83;;;5.77;;
5587;SDS011;2816;49.778;9.986;2022-11-03T14:47:13;7.40;;;5.00;;
5587;SDS011;2816;49.778;9.986;2022-11-03T14:49:41;7.70;;;5.20;;
5587;SDS011;2816;49.778;9.986;2022-11-03T14:52:08;14.00;;;6.27;;
5587;SDS011;2816;49.778;9.986;2022-11-03T14:54:35;12.50;;;4.80;;
5587;SDS011;2816;49.778;9.986;2022-11-03T14:57:04;7.60;;;4.70;;
5587;SDS011;2816;49.778;9.986;2022-11-03T14:59:32;10.97;;;5.47;;
5587;SDS011;2816;49.778;9.986;2022-11-03T15:01:59;10.10;;;5.00;;
5587;SDS011;2816;49.778;9.986;2022-11-03T15:04:27;7.90;;;5.20;;
5587;SDS011;2816;49.778;9.986;2022-11-03T15:06:54;9.20;;;5.30;;
5587;SDS011;2816;49.778;9.986;2022-11-03T15:09:21;12.83;;;6.10;;
5587;SDS011;2816;49.778;9.986;2022-11-03T15:11:48;16.03;;;5.00;;
5587;SDS011;2816;49.778;9.986;2022-11-03T15:14:17;10.27;;;5.57;;
5587;SDS011;2816;49.778;9.986;2022-11-03T15:16:46;10.17;;;5.60;;
5587;SDS011;2816;49.778;9.986;2022-11-03T15:19:13;10.50;;;5.17;;
5587;SDS011;2816;49.778;9.986;2022-11-03T15:21:40;10.00;;;5.70;;
5587;SDS011;2816;49.778;9.986;2022-11-03T15:24:06;8.70;;;5.37;;
5587;SDS011;2816;49.778;9.986;2022-11-03T15:26:33;8.43;;;5.23;;
5587;SDS011;2816;49.778;9.986;2022-11-03T15:29:00;11.67;;;6.50;;
5587;SDS011;2816;49.778;9.986;2022-11-03T15:31:29;10.00;;;5.37;;
5587;SDS011;2816;49.778;9.986;2022-11-03T15:33:56;7.90;;;5.53;;
5587;SDS011;2816;49.778;9.986;2022-11-03T15:36:23;13.37;;;6.70;;
5587;SDS011;2816;49.778;9.986;2022-11-03T15:38:50;8.23;;;5.83;;
5587;SDS011;2816;49.778;9.986;2022-11-03T15:41:16;8.43;;;6.00;;
5587;SDS011;2816;49.778;9.986;2022-11-03T15:43:44;11.77;;;6.17;;